Bangkok (Don Mueang), Thailand

3:20 AM ICT on July 24, 2016 (GMT +0700)
Noobookbig vibhavadi 60 laksi bangkok | | Change Station

Elev 13 ft 13.87 °N, 100.58 °E | Updated 16 minutes ago

Mostly Cloudy
Mostly Cloudy
84.0 °F
Feels Like 96 °F
N
0.6
Wind Variable Wind from North

Today
High -- | Low -- °F
--% Chance of Precip.
Yesterday
High -- | Low -- °F
Precip. -- in
Pressure 29.80 in
Visibility 6.2 miles
Clouds Few 1000 ft
Mostly Cloudy 10000 ft
Heat Index 96 °F
Dew Point 78 °F
Humidity 85%
Rainfall 0.02 in
Snow Depth Not available.
5:59 AM 6:48 PM
Waning Gibbous, 83% visible
METAR VTBD 232000Z 13005KT 9999 FEW010 BKN100 27/25 Q1009 NOSIG
Pressure 29.80 in
Visibility 6.2 miles
Clouds Few 1000 ft
Mostly Cloudy 10000 ft
Heat Index 96 °F
Dew Point 78 °F
Humidity 85%
Rainfall 0.02 in
Snow Depth Not available.
5:59 AM 6:48 PM
Waning Gibbous, 83% visible
METAR VTBD 232000Z 13005KT 9999 FEW010 BKN100 27/25 Q1009 NOSIG

10-Day Weather Forecast

No radar image for this location.
×

Almanac

Astronomy

Jul. 24, 2016 Rise Set
Actual Time
Civil Twilight
Nautical Twilight
Astronomical Twilight
Moon
Length of Visible Light
Length of Day
Tomorrow will be .
, % of the Moon is Illuminated

Today's Extremes

Country Highs Country Lows

Community

WunderPhotos

Upload Photos

1,926,913 photos uploaded!

WunderBlog® & News

Nearby

Air Quality

  Air Quality AQ Index Pollutant
Not available.

Snow Depth

Station Depth Elevation

Earthquake Activity

City Distance Mag. Time & Date
Minimum magnitude displayed is 2.5.

Coastal Water Temperatures

Place Temperature

Stations

Nearby Weather Stations

Station Location Temp. Windchill Dew Point Humidity Wind Precip. Elev Updated Type